createdAt,value
2018-05-23T00:01:03.298Z,100056
2018-05-23T00:02:08.195Z,100067
2018-05-23T00:03:12.775Z,100078
2018-05-23T00:04:18.656Z,100067
2018-05-23T00:05:23.802Z,100067
2018-05-23T00:06:29.111Z,100056
2018-05-23T00:07:34.846Z,100064
2018-05-23T00:08:40.061Z,100056
2018-05-23T00:09:45.968Z,100064
2018-05-23T00:10:51.392Z,100053
2018-05-23T00:11:56.823Z,100061
2018-05-23T00:13:01.714Z,100056
2018-05-23T00:14:06.325Z,100059
2018-05-23T00:15:11.750Z,100064
2018-05-23T00:16:17.500Z,100061
2018-05-23T00:17:22.656Z,100050
2018-05-23T00:18:28.122Z,100061
2018-05-23T00:19:33.324Z,100056
2018-05-23T00:20:38.168Z,100064
2018-05-23T00:21:43.861Z,100053
2018-05-23T00:22:49.295Z,100053
2018-05-23T00:23:54.450Z,100056
2018-05-23T00:24:59.916Z,100047
2018-05-23T00:26:04.816Z,100064
2018-05-23T00:27:10.258Z,100053
2018-05-23T00:28:16.264Z,100047
2018-05-23T00:29:21.423Z,100047
2018-05-23T00:30:26.892Z,100047
2018-05-23T00:31:30.955Z,100053
2018-05-23T00:32:36.115Z,100053
2018-05-23T00:33:41.350Z,100056
2018-05-23T00:34:46.790Z,100056
2018-05-23T00:35:52.226Z,100059
2018-05-23T00:36:57.754Z,100053
2018-05-23T00:38:02.956Z,100059
2018-05-23T00:39:08.170Z,100053
2018-05-23T00:40:13.901Z,100059
2018-05-23T00:41:19.076Z,100059
2018-05-23T00:43:44.163Z,100044
2018-05-23T00:44:49.325Z,100050
2018-05-23T00:45:54.890Z,100053
2018-05-23T00:47:00.044Z,100053
2018-05-23T00:48:05.194Z,100061
2018-05-23T00:49:11.086Z,100050
2018-05-23T00:50:16.707Z,100056
2018-05-23T00:51:22.359Z,100056
2018-05-23T00:52:28.253Z,100047
2018-05-23T00:53:33.717Z,100056
2018-05-23T00:54:39.377Z,100050
2018-05-23T00:55:44.524Z,100061
2018-05-23T00:56:49.972Z,100061
2018-05-23T00:57:55.347Z,100041
2018-05-23T00:59:00.776Z,100047
2018-05-23T01:00:05.646Z,100061
2018-05-23T01:01:11.043Z,100050
2018-05-23T01:02:16.475Z,100064
2018-05-23T01:03:21.647Z,100075
2018-05-23T01:04:26.724Z,100056
2018-05-23T01:05:31.911Z,100056
2018-05-23T01:06:37.299Z,100061
2018-05-23T01:07:42.739Z,100056
2018-05-23T01:08:47.916Z,100064
2018-05-23T01:09:53.359Z,100061
2018-05-23T01:10:58.794Z,100056
2018-05-23T01:12:03.949Z,100061
2018-05-23T01:13:09.507Z,100053
2018-05-23T01:14:14.949Z,100059
2018-05-23T01:15:19.823Z,100078
2018-05-23T01:16:25.217Z,100061
2018-05-23T01:17:30.387Z,100064
2018-05-23T01:18:36.074Z,100050
2018-05-23T01:19:41.032Z,100059
2018-05-23T01:20:46.263Z,100075
2018-05-23T01:21:51.785Z,100056
2018-05-23T01:22:56.930Z,100056
2018-05-23T01:24:01.803Z,100070
2018-05-23T01:25:06.731Z,100061
2018-05-23T01:26:12.186Z,100059
2018-05-23T01:27:17.332Z,100067
2018-05-23T01:28:22.744Z,100075
2018-05-23T01:29:27.609Z,100067
2018-05-23T01:30:33.304Z,100067
2018-05-23T01:31:38.203Z,100056
2018-05-23T01:32:43.633Z,100050
2018-05-23T01:33:49.105Z,100067
2018-05-23T01:34:53.695Z,100059
2018-05-23T01:35:58.842Z,100067
2018-05-23T01:37:04.764Z,100061
2018-05-23T01:38:09.915Z,100061
2018-05-23T01:39:15.076Z,100061
2018-05-23T01:40:20.765Z,100064
2018-05-23T01:41:25.924Z,100078
2018-05-23T01:42:31.584Z,100061
2018-05-23T01:43:36.804Z,100056
2018-05-23T01:44:41.668Z,100064
2018-05-23T01:45:46.931Z,100061
2018-05-23T01:46:52.086Z,100059
2018-05-23T01:47:56.962Z,100067
2018-05-23T01:49:01.948Z,100061
2018-05-23T01:50:06.528Z,100064
2018-05-23T01:51:11.131Z,100056
2018-05-23T01:52:16.585Z,100061
2018-05-23T01:53:22.019Z,100075
2018-05-23T01:54:27.761Z,100053
2018-05-23T01:55:32.650Z,100061
2018-05-23T01:56:37.803Z,100056
2018-05-23T01:57:42.976Z,100061
2018-05-23T01:58:48.128Z,100067
2018-05-23T01:59:53.283Z,100061
2018-05-23T02:00:59.079Z,100070
2018-05-23T02:02:04.223Z,100067
2018-05-23T02:03:09.654Z,100087
2018-05-23T02:04:15.485Z,100067
2018-05-23T02:05:20.403Z,100064
2018-05-23T02:06:26.008Z,100061
2018-05-23T02:07:31.450Z,100075
2018-05-23T02:08:36.884Z,100070
2018-05-23T02:09:42.728Z,100064
2018-05-23T02:10:47.882Z,100070
2018-05-23T02:11:53.339Z,100067
2018-05-23T02:12:58.735Z,100075
2018-05-23T02:14:03.894Z,100078
2018-05-23T02:15:08.194Z,100084
2018-05-23T02:16:12.774Z,100081
2018-05-23T02:17:17.340Z,100087
2018-05-23T02:18:21.935Z,100078
2018-05-23T02:19:27.831Z,100090
2018-05-23T02:20:32.709Z,100084
2018-05-23T02:21:38.276Z,100070
2018-05-23T02:22:43.707Z,100090
2018-05-23T02:23:48.855Z,100092
2018-05-23T02:24:54.636Z,100090
2018-05-23T02:25:59.501Z,100078
2018-05-23T02:27:04.403Z,100084
2018-05-23T02:28:09.570Z,100087
2018-05-23T02:29:14.718Z,100075
2018-05-23T02:30:19.903Z,100070
2018-05-23T02:31:25.734Z,100084
2018-05-23T02:32:30.615Z,100075
2018-05-23T02:33:36.504Z,100087
2018-05-23T02:34:41.666Z,100084
2018-05-23T02:35:47.104Z,100081
2018-05-23T02:36:52.559Z,100084
2018-05-23T02:37:57.713Z,100087
2018-05-23T02:39:02.868Z,100070
2018-05-23T02:40:08.547Z,100081
2018-05-23T02:41:13.729Z,100084
2018-05-23T02:42:19.164Z,100075
2018-05-23T02:43:24.574Z,100075
2018-05-23T02:44:29.730Z,100087
2018-05-23T02:45:35.579Z,100075
2018-05-23T02:46:40.728Z,100084
2018-05-23T02:47:45.599Z,100070
2018-05-23T02:48:50.778Z,100081
2018-05-23T02:49:55.636Z,100084
2018-05-23T02:51:00.806Z,100087
2018-05-23T02:52:05.651Z,100081
2018-05-23T02:53:10.519Z,100081
2018-05-23T02:54:15.667Z,100084
2018-05-23T02:55:21.120Z,100084
2018-05-23T02:56:25.984Z,100087
2018-05-23T02:57:31.669Z,100098
2018-05-23T02:58:36.538Z,100092
2018-05-23T02:59:41.726Z,100084
2018-05-23T03:00:47.414Z,100087
2018-05-23T03:01:52.856Z,100081
2018-05-23T03:02:57.784Z,100095
2018-05-23T03:04:03.979Z,100090
2018-05-23T03:05:08.877Z,100084
2018-05-23T03:06:14.323Z,100084
2018-05-23T03:07:19.809Z,100087
2018-05-23T03:08:24.970Z,100081
2018-05-23T03:09:30.803Z,100095
2018-05-23T03:10:35.100Z,100098
2018-05-23T03:11:40.528Z,100092
2018-05-23T03:12:46.066Z,100098
2018-05-23T03:13:51.498Z,100095
2018-05-23T03:14:56.373Z,100098
2018-05-23T03:16:01.675Z,100095
2018-05-23T03:17:06.239Z,100087
2018-05-23T03:18:11.671Z,100098
2018-05-23T03:19:17.426Z,100104
2018-05-23T03:20:22.593Z,100104
2018-05-23T03:21:28.272Z,100116
2018-05-23T03:22:33.433Z,100098
2018-05-23T03:23:38.878Z,100107
2018-05-23T03:24:44.471Z,100098
2018-05-23T03:25:49.933Z,100104
2018-05-23T03:26:55.382Z,100113
2018-05-23T03:28:00.832Z,100110
2018-05-23T03:29:06.267Z,100119
2018-05-23T03:30:11.133Z,100113
2018-05-23T03:31:16.310Z,100121
2018-05-23T03:32:21.759Z,100116
2018-05-23T03:33:27.383Z,100119
2018-05-23T03:34:32.258Z,100116
2018-05-23T03:35:37.139Z,100110
2018-05-23T03:36:42.361Z,100113
2018-05-23T03:37:47.502Z,100116
2018-05-23T03:38:52.657Z,100113
2018-05-23T03:39:58.114Z,100113
2018-05-23T03:41:03.261Z,100113
2018-05-23T03:42:08.413Z,100116
2018-05-23T03:43:13.820Z,100116
2018-05-23T03:44:19.286Z,100119
2018-05-23T03:45:39.733Z,100124
2018-05-23T03:46:44.632Z,100116
2018-05-23T03:47:49.785Z,100124
2018-05-23T03:48:55.330Z,100116
2018-05-23T03:50:00.760Z,100121
2018-05-23T03:51:05.643Z,100116
2018-05-23T03:52:11.203Z,100127
2018-05-23T03:53:16.354Z,100127
2018-05-23T03:54:21.525Z,100124
2018-05-23T03:55:27.653Z,100139
2018-05-23T03:56:32.836Z,100133
2018-05-23T03:57:38.624Z,100124
2018-05-23T03:58:43.777Z,100133
2018-05-23T03:59:49.210Z,100127
2018-05-23T04:00:54.653Z,100139
2018-05-23T04:01:59.808Z,100139
2018-05-23T04:03:04.679Z,100139
2018-05-23T04:04:10.366Z,100139
2018-05-23T04:05:14.950Z,100136
2018-05-23T04:06:20.379Z,100139
2018-05-23T04:07:25.781Z,100139
2018-05-23T04:08:31.231Z,100139
2018-05-23T04:09:37.311Z,100139
2018-05-23T04:10:41.926Z,100152
2018-05-23T04:11:47.359Z,100145
2018-05-23T04:12:52.787Z,100142
2018-05-23T04:13:57.655Z,100149
2018-05-23T04:15:02.519Z,100145
2018-05-23T04:16:07.366Z,100158
2018-05-23T04:17:12.515Z,100155
2018-05-23T04:18:17.958Z,100152
2018-05-23T04:19:23.641Z,100149
2018-05-23T04:20:29.123Z,100147
2018-05-23T04:21:34.318Z,100152
2018-05-23T04:22:39.475Z,100145
2018-05-23T04:23:44.915Z,100161
2018-05-23T04:24:49.995Z,100155
2018-05-23T04:25:54.899Z,100170
2018-05-23T04:26:59.784Z,100167
2018-05-23T04:28:05.524Z,100161
2018-05-23T04:29:10.682Z,100161
2018-05-23T04:30:16.114Z,100167
2018-05-23T04:31:21.814Z,100158
2018-05-23T04:32:26.975Z,100164
2018-05-23T04:33:33.138Z,100161
2018-05-23T04:34:38.575Z,100178
2018-05-23T04:35:43.450Z,100161
2018-05-23T04:36:49.252Z,100161
2018-05-23T04:37:54.439Z,100161
2018-05-23T04:38:59.612Z,100175
2018-05-23T04:40:04.545Z,100167
2018-05-23T04:41:09.980Z,100170
2018-05-23T04:42:15.450Z,100178
2018-05-23T04:43:21.242Z,100175
2018-05-23T04:44:26.094Z,100181
2018-05-23T04:45:31.645Z,100184
2018-05-23T04:46:36.524Z,100175
2018-05-23T04:47:41.968Z,100184
2018-05-23T04:48:47.755Z,100178
2018-05-23T04:49:53.576Z,100184
2018-05-23T04:50:58.770Z,100184
2018-05-23T04:52:04.231Z,100181
2018-05-23T04:53:08.819Z,100187
2018-05-23T04:54:13.688Z,100187
2018-05-23T04:55:19.222Z,100187
2018-05-23T04:56:24.097Z,100187
2018-05-23T04:57:29.988Z,100193
2018-05-23T04:58:35.168Z,100193
2018-05-23T04:59:40.610Z,100207
2018-05-23T05:00:45.835Z,100196
2018-05-23T05:01:51.268Z,100187
2018-05-23T05:02:56.701Z,100196
2018-05-23T05:04:02.128Z,100193
2018-05-23T05:05:06.726Z,100193
2018-05-23T05:06:11.874Z,100202
2018-05-23T05:07:17.636Z,100193
2018-05-23T05:08:22.797Z,100199
2018-05-23T05:09:28.316Z,100202
2018-05-23T05:10:33.201Z,100202
2018-05-23T05:11:38.632Z,100204
2018-05-23T05:12:44.088Z,100199
2018-05-23T05:13:49.414Z,100199
2018-05-23T05:14:54.877Z,100204
2018-05-23T05:16:00.385Z,100202
2018-05-23T05:17:04.966Z,100204
2018-05-23T05:18:09.880Z,100202
2018-05-23T05:19:14.758Z,100207
2018-05-23T05:20:19.625Z,100204
2018-05-23T05:21:39.412Z,100207
2018-05-23T05:22:44.929Z,100204
2018-05-23T05:23:50.077Z,100210
2018-05-23T05:24:55.567Z,100202
2018-05-23T05:26:00.667Z,100213
2018-05-23T05:27:05.810Z,100219
2018-05-23T05:28:11.268Z,100225
2018-05-23T05:29:16.701Z,100225
2018-05-23T05:30:21.890Z,100225
2018-05-23T05:31:27.985Z,100233
2018-05-23T05:32:32.850Z,100236
2018-05-23T05:33:38.263Z,100225
2018-05-23T05:34:43.711Z,100219
2018-05-23T05:35:49.149Z,100236
2018-05-23T05:36:54.994Z,100245
2018-05-23T05:38:00.440Z,100231
2018-05-23T05:39:05.305Z,100236
2018-05-23T05:40:10.487Z,100245
2018-05-23T05:41:15.660Z,100242
2018-05-23T05:42:21.078Z,100242
2018-05-23T05:43:41.144Z,100245
2018-05-23T05:44:46.297Z,100248
2018-05-23T05:45:52.126Z,100245
2018-05-23T05:46:57.363Z,100251
2018-05-23T05:48:02.285Z,100251
2018-05-23T05:49:07.814Z,100248
2018-05-23T05:50:12.702Z,100254
2018-05-23T05:51:17.578Z,100248
2018-05-23T05:52:22.984Z,100245
2018-05-23T05:53:28.135Z,100260
2018-05-23T05:54:33.593Z,100242
2018-05-23T05:55:39.023Z,100251
2018-05-23T05:56:44.454Z,100251
2018-05-23T05:57:50.014Z,100260
2018-05-23T05:58:54.895Z,100254
2018-05-23T06:00:00.044Z,100262
2018-05-23T06:01:05.263Z,100260
2018-05-23T06:02:10.612Z,100268
2018-05-23T06:03:16.043Z,100268
2018-05-23T06:04:21.172Z,100271
2018-05-23T06:05:26.081Z,100271
2018-05-23T06:06:31.911Z,100268
2018-05-23T06:07:36.849Z,100268
2018-05-23T06:08:42.297Z,100271
2018-05-23T06:09:48.284Z,100277
2018-05-23T06:10:54.023Z,100271
2018-05-23T06:11:59.167Z,100283
2018-05-23T06:13:04.311Z,100271
2018-05-23T06:14:09.464Z,100277
2018-05-23T06:15:14.629Z,100277
2018-05-23T06:16:20.319Z,100283
2018-05-23T06:17:25.755Z,100283
2018-05-23T06:18:31.485Z,100290
2018-05-23T06:19:36.355Z,100277
2018-05-23T06:20:41.785Z,100271
2018-05-23T06:21:47.188Z,100283
2018-05-23T06:22:52.070Z,100288
2018-05-23T06:23:56.927Z,100283
2018-05-23T06:25:02.097Z,100277
2018-05-23T06:26:06.684Z,100277
2018-05-23T06:27:11.569Z,100290
2018-05-23T06:28:16.689Z,100290
2018-05-23T06:29:22.318Z,100288
2018-05-23T06:30:27.999Z,100288
2018-05-23T06:31:33.766Z,100283
2018-05-23T06:32:38.643Z,100290
2018-05-23T06:33:44.314Z,100290
2018-05-23T06:34:49.517Z,100288
2018-05-23T06:35:54.674Z,100286
2018-05-23T06:36:59.811Z,100290
2018-05-23T06:38:04.678Z,100293
2018-05-23T06:39:09.554Z,100290
2018-05-23T06:40:15.356Z,100305
2018-05-23T06:41:20.508Z,100290
2018-05-23T06:42:26.105Z,100299
2018-05-23T06:43:30.838Z,100299
2018-05-23T06:44:36.851Z,100293
2018-05-23T06:45:42.248Z,100302
2018-05-23T06:46:47.116Z,100299
2018-05-23T06:47:52.016Z,100299
2018-05-23T06:48:57.685Z,100296
2018-05-23T06:50:02.371Z,100311
2018-05-23T06:51:07.046Z,100302
2018-05-23T06:52:12.496Z,100308
2018-05-23T06:53:18.033Z,100305
2018-05-23T06:54:23.321Z,100299
2018-05-23T06:55:28.892Z,100311
2018-05-23T06:56:33.797Z,100302
2018-05-23T06:57:39.401Z,100302
2018-05-23T06:58:44.552Z,100334
2018-05-23T06:59:49.695Z,100319
2018-05-23T07:00:54.865Z,100322
2018-05-23T07:02:00.300Z,100317
2018-05-23T07:03:04.616Z,100314
2018-05-23T07:04:10.299Z,100319
2018-05-23T07:05:15.166Z,100325
2018-05-23T07:06:20.596Z,100322
2018-05-23T07:07:40.401Z,100322
2018-05-23T07:08:45.554Z,100317
2018-05-23T07:09:51.110Z,100334
2018-05-23T07:10:55.974Z,100334
2018-05-23T07:12:00.870Z,100319
2018-05-23T07:13:05.814Z,100331
2018-05-23T07:14:10.689Z,100325
2018-05-23T07:15:15.850Z,100319
2018-05-23T07:16:21.438Z,100336
2018-05-23T07:17:26.325Z,100345
2018-05-23T07:18:31.889Z,100336
2018-05-23T07:19:36.771Z,100334
2018-05-23T07:20:41.966Z,100334
2018-05-23T07:21:47.565Z,100331
2018-05-23T07:22:52.443Z,100336
2018-05-23T07:23:57.077Z,100336
2018-05-23T07:25:02.248Z,100334
2018-05-23T07:26:07.683Z,100339
2018-05-23T07:27:12.345Z,100342
2018-05-23T07:28:18.085Z,100339
2018-05-23T07:29:22.972Z,100348
2018-05-23T07:30:28.595Z,100350
2018-05-23T07:31:33.752Z,100339
2018-05-23T07:32:38.977Z,100353
2018-05-23T07:33:43.592Z,100345
2018-05-23T07:34:48.953Z,100348
2018-05-23T07:35:54.139Z,100342
2018-05-23T07:37:00.026Z,100345
2018-05-23T07:38:05.182Z,100348
2018-05-23T07:39:09.759Z,100356
2018-05-23T07:40:14.878Z,100359
2018-05-23T07:41:20.040Z,100350
2018-05-23T07:42:39.939Z,100342
2018-05-23T07:43:45.368Z,100353
2018-05-23T07:44:50.540Z,100350
2018-05-23T07:45:56.171Z,100353
2018-05-23T07:47:01.092Z,100356
2018-05-23T07:48:05.678Z,100353
2018-05-23T07:49:11.419Z,100348
2018-05-23T07:50:16.586Z,100359
2018-05-23T07:51:21.749Z,100356
2018-05-23T07:52:27.113Z,100362
2018-05-23T07:53:32.556Z,100356
2018-05-23T07:54:38.288Z,100348
2018-05-23T07:55:43.431Z,100348
2018-05-23T07:56:49.080Z,100353
2018-05-23T07:57:54.254Z,100356
2018-05-23T07:58:59.161Z,100362
2018-05-23T08:00:04.314Z,100365
2018-05-23T08:01:09.222Z,100371
2018-05-23T08:02:13.803Z,100359
2018-05-23T08:03:19.238Z,100368
2018-05-23T08:04:24.711Z,100359
2018-05-23T08:05:29.918Z,100365
2018-05-23T08:06:35.216Z,100365
2018-05-23T08:07:39.518Z,100362
2018-05-23T08:08:44.693Z,100362
2018-05-23T08:09:50.105Z,100377
2018-05-23T08:10:55.450Z,100371
2018-05-23T08:12:00.610Z,100374
2018-05-23T08:13:05.330Z,100377
2018-05-23T08:14:10.846Z,100371
2018-05-23T08:15:16.007Z,100374
2018-05-23T08:16:20.895Z,100380
2018-05-23T08:17:26.353Z,100377
2018-05-23T08:18:32.183Z,100394
2018-05-23T08:19:37.889Z,100391
2018-05-23T08:20:43.376Z,100380
2018-05-23T08:21:49.282Z,100380
2018-05-23T08:22:55.042Z,100385
2018-05-23T08:24:00.422Z,100382
2018-05-23T08:25:05.748Z,100374
2018-05-23T08:26:10.412Z,100377
2018-05-23T08:27:15.002Z,100382
2018-05-23T08:28:20.415Z,100385
2018-05-23T08:29:25.292Z,100385
2018-05-23T08:30:30.819Z,100382
2018-05-23T08:31:36.457Z,100382
2018-05-23T08:32:41.653Z,100385
2018-05-23T08:33:46.820Z,100382
2018-05-23T08:34:52.256Z,100385
2018-05-23T08:35:56.855Z,100397
2018-05-23T08:37:01.785Z,100385
2018-05-23T08:38:06.660Z,100382
2018-05-23T08:39:11.246Z,100394
2018-05-23T08:40:16.107Z,100388
2018-05-23T08:41:21.267Z,100388
2018-05-23T08:42:41.481Z,100391
2018-05-23T08:43:46.347Z,100385
2018-05-23T08:44:50.655Z,100394
2018-05-23T08:45:55.993Z,100397
2018-05-23T08:47:02.153Z,100400
2018-05-23T08:48:07.317Z,100400
2018-05-23T08:49:12.771Z,100400
2018-05-23T08:50:17.637Z,100394
2018-05-23T08:51:22.513Z,100391
2018-05-23T08:52:28.523Z,100400
2018-05-23T08:53:33.671Z,100394
2018-05-23T08:54:38.851Z,100403
2018-05-23T08:55:43.771Z,100403
2018-05-23T08:56:48.371Z,100406
2018-05-23T08:57:53.786Z,100406
2018-05-23T08:58:58.956Z,100403
2018-05-23T09:00:03.822Z,100406
2018-05-23T09:01:08.757Z,100414
2018-05-23T09:02:13.646Z,100411
2018-05-23T09:03:19.096Z,100411
2018-05-23T09:04:24.781Z,100409
2018-05-23T09:05:29.743Z,100414
2018-05-23T09:06:35.137Z,100409
2018-05-23T09:07:40.299Z,100414
2018-05-23T09:08:45.452Z,100414
2018-05-23T09:09:50.580Z,100420
2018-05-23T09:10:55.510Z,100411
2018-05-23T09:12:00.664Z,100420
2018-05-23T09:13:05.321Z,100417
2018-05-23T09:14:09.619Z,100423
2018-05-23T09:15:14.497Z,100423
2018-05-23T09:16:20.235Z,100406
2018-05-23T09:17:25.387Z,100417
2018-05-23T09:18:31.125Z,100417
2018-05-23T09:19:36.282Z,100429
2018-05-23T09:20:41.459Z,100423
2018-05-23T09:21:47.055Z,100417
2018-05-23T09:22:52.219Z,100420
2018-05-23T09:23:57.085Z,100411
2018-05-23T09:25:02.116Z,100420
2018-05-23T09:26:07.005Z,100423
2018-05-23T09:27:12.758Z,100432
2018-05-23T09:28:17.613Z,100432
2018-05-23T09:29:22.749Z,100417
2018-05-23T09:30:27.893Z,100432
2018-05-23T09:31:32.782Z,100420
2018-05-23T09:32:37.664Z,100438
2018-05-23T09:33:43.357Z,100429
2018-05-23T09:34:48.542Z,100438
2018-05-23T09:35:53.898Z,100432
2018-05-23T09:36:59.025Z,100435
2018-05-23T09:38:04.457Z,100435
2018-05-23T09:39:10.237Z,100435
2018-05-23T09:40:15.979Z,100446
2018-05-23T09:41:21.132Z,100441
2018-05-23T09:42:26.887Z,100446
2018-05-23T09:43:32.080Z,100438
2018-05-23T09:44:36.687Z,100440
2018-05-23T09:45:42.382Z,100441
2018-05-23T09:46:47.005Z,100446
2018-05-23T09:47:51.820Z,100455
2018-05-23T09:48:57.553Z,100449
2018-05-23T09:50:02.461Z,100452
2018-05-23T09:51:07.668Z,100438
2018-05-23T09:52:12.806Z,100449
2018-05-23T09:53:18.246Z,100449
2018-05-23T09:54:23.413Z,100452
2018-05-23T09:55:28.505Z,100446
2018-05-23T09:56:33.676Z,100449
2018-05-23T09:57:39.437Z,100461
2018-05-23T09:58:44.481Z,100449
2018-05-23T09:59:49.621Z,100452
2018-05-23T10:00:55.360Z,100449
2018-05-23T10:02:00.718Z,100449
2018-05-23T10:03:06.074Z,100461
2018-05-23T10:04:11.256Z,100464
2018-05-23T10:05:16.415Z,100464
2018-05-23T10:06:21.295Z,100461
2018-05-23T10:07:26.561Z,100458
2018-05-23T10:08:31.420Z,100461
2018-05-23T10:09:35.987Z,100461
2018-05-23T10:10:41.140Z,100472
2018-05-23T10:11:46.018Z,100461
2018-05-23T10:12:50.970Z,100467
2018-05-23T10:13:56.414Z,100472
2018-05-23T10:15:01.558Z,100477
2018-05-23T10:16:06.324Z,100467
2018-05-23T10:17:11.777Z,100472
2018-05-23T10:18:17.209Z,100470
2018-05-23T10:19:22.222Z,100461
2018-05-23T10:20:27.127Z,100475
2018-05-23T10:21:32.574Z,100472
2018-05-23T10:22:37.738Z,100483
2018-05-23T10:23:42.899Z,100477
2018-05-23T10:24:48.086Z,100475
2018-05-23T10:25:53.182Z,100475
2018-05-23T10:26:58.050Z,100472
2018-05-23T10:28:02.743Z,100483
2018-05-23T10:29:07.891Z,100486
2018-05-23T10:30:12.830Z,100480
2018-05-23T10:31:18.224Z,100483
2018-05-23T10:32:23.372Z,100477
2018-05-23T10:33:29.570Z,100477
2018-05-23T10:34:34.380Z,100475
2018-05-23T10:35:39.250Z,100483
2018-05-23T10:36:44.750Z,100486
2018-05-23T10:37:49.653Z,100475
2018-05-23T10:38:54.764Z,100475
2018-05-23T10:39:59.337Z,100475
2018-05-23T10:41:04.503Z,100486
2018-05-23T10:42:09.653Z,100477
2018-05-23T10:43:14.895Z,100483
2018-05-23T10:44:20.325Z,100477
2018-05-23T10:45:25.477Z,100477
2018-05-23T10:46:30.914Z,100477
2018-05-23T10:47:36.344Z,100489
2018-05-23T10:48:41.633Z,100489
2018-05-23T10:49:47.063Z,100486
2018-05-23T10:50:52.699Z,100486
2018-05-23T10:51:58.349Z,100480
2018-05-23T10:53:04.063Z,100486
2018-05-23T10:54:09.424Z,100480
2018-05-23T10:55:14.601Z,100480
2018-05-23T10:56:19.749Z,100492
2018-05-23T10:58:45.047Z,100495
2018-05-23T10:59:50.230Z,100480
2018-05-23T11:00:54.795Z,100483
2018-05-23T11:01:59.729Z,100498
2018-05-23T11:03:04.327Z,100495
2018-05-23T11:04:09.622Z,100492
2018-05-23T11:05:14.506Z,100489
2018-05-23T11:06:19.382Z,100480
2018-05-23T11:07:24.536Z,100501
2018-05-23T11:08:29.971Z,100495
2018-05-23T11:09:35.632Z,100498
2018-05-23T11:10:40.787Z,100492
2018-05-23T11:11:45.934Z,100495
2018-05-23T11:12:51.362Z,100498
2018-05-23T11:13:56.510Z,100498
2018-05-23T11:15:01.665Z,100486
2018-05-23T11:16:07.834Z,100506
2018-05-23T11:17:12.715Z,100495
2018-05-23T11:18:18.208Z,100506
2018-05-23T11:19:23.858Z,100504
2018-05-23T11:20:29.062Z,100495
2018-05-23T11:21:34.290Z,100492
2018-05-23T11:22:38.897Z,100495
2018-05-23T11:23:44.073Z,100504
2018-05-23T11:24:49.202Z,100501
2018-05-23T11:25:54.653Z,100501
2018-05-23T11:26:59.950Z,100492
2018-05-23T11:28:04.939Z,100492
2018-05-23T11:29:09.248Z,100495
2018-05-23T11:30:13.856Z,100495
2018-05-23T11:31:18.695Z,100489
2018-05-23T11:32:23.864Z,100489
2018-05-23T11:33:29.548Z,100483
2018-05-23T11:34:34.981Z,100483
2018-05-23T11:35:40.125Z,100483
2018-05-23T11:36:45.226Z,100489
2018-05-23T11:37:50.371Z,100492
2018-05-23T11:38:55.526Z,100486
2018-05-23T11:40:01.032Z,100477
2018-05-23T11:41:05.626Z,100489
2018-05-23T11:42:10.772Z,100477
2018-05-23T11:43:16.198Z,100476
2018-05-23T11:44:21.063Z,100473
2018-05-23T11:45:40.559Z,100470
2018-05-23T11:46:45.981Z,100483
2018-05-23T11:47:51.628Z,100467
2018-05-23T11:48:57.338Z,100464
2018-05-23T11:50:01.642Z,100476
2018-05-23T11:51:05.956Z,100476
2018-05-23T11:52:11.593Z,100476
2018-05-23T11:53:16.847Z,100476
2018-05-23T11:54:22.283Z,100478
2018-05-23T11:55:27.998Z,100478
2018-05-23T11:56:32.614Z,100476
2018-05-23T11:57:38.277Z,100476
2018-05-23T11:58:43.148Z,100476
2018-05-23T11:59:48.367Z,100473
2018-05-23T12:00:53.481Z,100476
2018-05-23T12:01:58.734Z,100467
2018-05-23T12:03:03.516Z,100470
2018-05-23T12:04:08.506Z,100476
2018-05-23T12:05:13.725Z,100486
2018-05-23T12:06:18.610Z,100476
2018-05-23T12:07:23.768Z,100470
2018-05-23T12:08:28.924Z,100470
2018-05-23T12:09:34.089Z,100467
2018-05-23T12:10:39.644Z,100464
2018-05-23T12:11:44.649Z,100458
2018-05-23T12:12:50.109Z,100461
2018-05-23T12:13:55.001Z,100470
2018-05-23T12:15:00.668Z,100473
2018-05-23T12:16:05.784Z,100470
2018-05-23T12:17:11.668Z,100464
2018-05-23T12:18:16.518Z,100464
2018-05-23T12:19:21.996Z,100461
2018-05-23T12:20:27.782Z,100456
2018-05-23T12:21:33.019Z,100476
2018-05-23T12:22:38.490Z,100467
2018-05-23T12:23:43.360Z,100456
2018-05-23T12:24:48.991Z,100464
2018-05-23T12:25:53.267Z,100467
2018-05-23T12:26:58.454Z,100467
2018-05-23T12:28:04.192Z,100464
2018-05-23T12:29:09.355Z,100462
2018-05-23T12:30:14.532Z,100467
2018-05-23T12:31:20.211Z,100459
2018-05-23T12:32:24.791Z,100465
2018-05-23T12:33:29.734Z,100465
2018-05-23T12:34:35.171Z,100465
2018-05-23T12:35:40.323Z,100462
2018-05-23T12:36:45.499Z,100473
2018-05-23T12:37:50.964Z,100459
2018-05-23T12:38:55.846Z,100462
2018-05-23T12:40:01.067Z,100456
2018-05-23T12:41:05.162Z,100453
2018-05-23T12:42:09.954Z,100453
2018-05-23T12:43:15.737Z,100468
2018-05-23T12:44:20.890Z,100462
2018-05-23T12:45:26.918Z,100465
2018-05-23T12:46:32.136Z,100462
2018-05-23T12:47:37.014Z,100465
2018-05-23T12:48:42.759Z,100459
2018-05-23T12:49:48.211Z,100459
2018-05-23T12:50:53.685Z,100465
2018-05-23T12:51:59.485Z,100456
2018-05-23T12:53:04.085Z,100465
2018-05-23T12:54:09.551Z,100450
2018-05-23T12:55:14.695Z,100468
2018-05-23T12:56:19.308Z,100459
2018-05-23T12:57:24.183Z,100459
2018-05-23T12:58:29.667Z,100453
2018-05-23T12:59:34.531Z,100459
2018-05-23T13:00:39.810Z,100459
2018-05-23T13:01:44.975Z,100450
2018-05-23T13:02:49.863Z,100453
2018-05-23T13:03:55.321Z,100462
2018-05-23T13:05:00.768Z,100465
2018-05-23T13:06:05.643Z,100444
2018-05-23T13:07:10.528Z,100450
2018-05-23T13:08:15.963Z,100456
2018-05-23T13:09:21.134Z,100456
2018-05-23T13:10:41.035Z,100465
2018-05-23T13:11:46.110Z,100447
2018-05-23T13:12:51.894Z,100453
2018-05-23T13:13:57.336Z,100442
2018-05-23T13:15:02.434Z,100444
2018-05-23T13:16:07.826Z,100439
2018-05-23T13:17:12.974Z,100439
2018-05-23T13:18:18.357Z,100453
2018-05-23T13:19:23.504Z,100450
2018-05-23T13:20:28.705Z,100442
2018-05-23T13:21:34.176Z,100445
2018-05-23T13:22:40.249Z,100439
2018-05-23T13:23:45.394Z,100433
2018-05-23T13:24:50.802Z,100436
2018-05-23T13:25:55.439Z,100442
2018-05-23T13:27:01.533Z,100433
2018-05-23T13:28:06.604Z,100436
2018-05-23T13:29:11.762Z,100430
2018-05-23T13:30:16.363Z,100439
2018-05-23T13:31:21.801Z,100436
2018-05-23T13:32:26.676Z,100427
2018-05-23T13:33:32.124Z,100436
2018-05-23T13:34:37.581Z,100433
2018-05-23T13:35:41.896Z,100430
2018-05-23T13:36:47.368Z,100427
2018-05-23T13:37:52.446Z,100430
2018-05-23T13:38:58.200Z,100427